sensor_id;sensor_type;location;lat;lon;timestamp;pressure;altitude;pressure_sealevel;temperature;humidity
65190;BME280;51777;53.570;9.984;2023-03-18T00:01:54;100487.13;;;11.66;100.00
65190;BME280;51777;53.570;9.984;2023-03-18T00:04:20;100483.56;;;11.67;100.00
65190;BME280;51777;53.570;9.984;2023-03-18T00:06:45;100485.19;;;11.68;100.00
65190;BME280;51777;53.570;9.984;2023-03-18T00:09:11;100486.81;;;11.69;100.00
65190;BME280;51777;53.570;9.984;2023-03-18T00:11:38;100478.88;;;11.71;100.00
65190;BME280;51777;53.570;9.984;2023-03-18T00:14:05;100483.41;;;11.69;100.00
65190;BME280;51777;53.570;9.984;2023-03-18T00:16:33;100487.63;;;11.70;100.00
65190;BME280;51777;53.570;9.984;2023-03-18T00:18:59;100485.47;;;11.65;100.00
65190;BME280;51777;53.570;9.984;2023-03-18T00:21:27;100485.19;;;11.68;100.00
65190;BME280;51777;53.570;9.984;2023-03-18T00:23:52;100485.47;;;11.65;100.00
65190;BME280;51777;53.570;9.984;2023-03-18T00:26:21;100479.38;;;11.66;100.00
65190;BME280;51777;53.570;9.984;2023-03-18T00:28:46;100482.91;;;11.65;100.00
65190;BME280;51777;53.570;9.984;2023-03-18T00:31:11;100475.13;;;11.65;100.00
65190;BME280;51777;53.570;9.984;2023-03-18T00:33:39;100481.63;;;11.69;100.00
65190;BME280;51777;53.570;9.984;2023-03-18T00:36:06;100480.97;;;11.67;100.00
65190;BME280;51777;53.570;9.984;2023-03-18T00:38:35;100473.22;;;11.67;100.00
65190;BME280;51777;53.570;9.984;2023-03-18T00:41:00;100476.28;;;11.71;100.00
65190;BME280;51777;53.570;9.984;2023-03-18T00:43:29;100478.88;;;11.71;100.00
65190;BME280;51777;53.570;9.984;2023-03-18T00:45:58;100478.88;;;11.71;100.00
65190;BME280;51777;53.570;9.984;2023-03-18T00:48:24;100476.78;;;11.74;100.00
65190;BME280;51777;53.570;9.984;2023-03-18T00:50:50;100473.22;;;11.75;100.00
65190;BME280;51777;53.570;9.984;2023-03-18T00:53:16;100475.97;;;11.74;100.00
65190;BME280;51777;53.570;9.984;2023-03-18T00:55:42;100485.50;;;11.73;100.00
65190;BME280;51777;53.570;9.984;2023-03-18T00:58:09;100483.25;;;11.70;100.00
65190;BME280;51777;53.570;9.984;2023-03-18T01:00:36;100483.56;;;11.67;100.00
65190;BME280;51777;53.570;9.984;2023-03-18T01:03:02;100493.41;;;11.64;100.00
65190;BME280;51777;53.570;9.984;2023-03-18T01:05:30;100485.81;;;11.62;100.00
65190;BME280;51777;53.570;9.984;2023-03-18T01:07:55;100493.56;;;11.62;100.00
65190;BME280;51777;53.570;9.984;2023-03-18T01:10:22;100492.13;;;11.60;100.00
65190;BME280;51777;53.570;9.984;2023-03-18T01:12:48;100496.16;;;11.54;100.00
65190;BME280;51777;53.570;9.984;2023-03-18T01:15:16;100493.25;;;11.57;100.00
65190;BME280;51777;53.570;9.984;2023-03-18T01:17:42;100489.66;;;11.50;100.00
65190;BME280;51777;53.570;9.984;2023-03-18T01:20:09;100489.50;;;11.52;100.00
65190;BME280;51777;53.570;9.984;2023-03-18T01:22:36;100488.69;;;11.51;100.00
65190;BME280;51777;53.570;9.984;2023-03-18T01:25:02;100484.81;;;11.47;100.00
65190;BME280;51777;53.570;9.984;2023-03-18T01:27:27;100486.59;;;11.46;100.00
65190;BME280;51777;53.570;9.984;2023-03-18T01:29:53;100482.22;;;11.47;100.00
65190;BME280;51777;53.570;9.984;2023-03-18T01:32:19;100491.44;;;11.50;100.00
65190;BME280;51777;53.570;9.984;2023-03-18T01:34:46;100492.09;;;11.52;100.00
65190;BME280;51777;53.570;9.984;2023-03-18T01:37:11;100489.66;;;11.50;100.00
65190;BME280;51777;53.570;9.984;2023-03-18T01:39:37;100491.44;;;11.50;100.00
65190;BME280;51777;53.570;9.984;2023-03-18T01:42:03;100487.88;;;11.51;100.00
65190;BME280;51777;53.570;9.984;2023-03-18T01:44:29;100491.94;;;11.53;100.00
65190;BME280;51777;53.570;9.984;2023-03-18T01:46:55;100489.34;;;11.53;100.00
65190;BME280;51777;53.570;9.984;2023-03-18T01:49:22;100486.75;;;11.53;100.00
65190;BME280;51777;53.570;9.984;2023-03-18T01:52:37;100489.22;;;11.55;100.00
65190;BME280;51777;53.570;9.984;2023-03-18T01:54:45;100484.03;;;11.55;100.00
65190;BME280;51777;53.570;9.984;2023-03-18T01:57:14;100489.97;;;11.47;100.00
65190;BME280;51777;53.570;9.984;2023-03-18T01:59:45;100491.94;;;11.53;100.00
65190;BME280;51777;53.570;9.984;2023-03-18T02:02:13;100498.59;;;11.56;100.00
65190;BME280;51777;53.570;9.984;2023-03-18T02:04:42;100496.50;;;11.59;100.00
65190;BME280;51777;53.570;9.984;2023-03-18T02:07:27;100500.22;;;11.57;100.00
65190;BME280;51777;53.570;9.984;2023-03-18T02:09:54;100503.13;;;11.54;100.00
65190;BME280;51777;53.570;9.984;2023-03-18T02:12:25;100504.56;;;11.56;100.00
65190;BME280;51777;53.570;9.984;2023-03-18T02:14:52;100502.16;;;11.55;100.00
65190;BME280;51777;53.570;9.984;2023-03-18T02:17:21;100508.13;;;11.55;100.00
65190;BME280;51777;53.570;9.984;2023-03-18T02:22:23;100506.53;;;11.62;100.00
65190;BME280;51777;53.570;9.984;2023-03-18T02:27:26;100521.44;;;11.68;100.00
65190;BME280;51777;53.570;9.984;2023-03-18T02:29:54;100525.66;;;11.69;100.00
65190;BME280;51777;53.570;9.984;2023-03-18T02:32:27;100522.09;;;11.70;100.00
65190;BME280;51777;53.570;9.984;2023-03-18T02:34:54;100520.00;;;11.74;100.00
65190;BME280;51777;53.570;9.984;2023-03-18T02:37:20;100512.06;;;11.75;100.00
65190;BME280;51777;53.570;9.984;2023-03-18T02:39:45;100516.25;;;11.76;100.00
65190;BME280;51777;53.570;9.984;2023-03-18T02:42:12;100519.81;;;11.75;100.00
65190;BME280;51777;53.570;9.984;2023-03-18T02:44:45;100522.13;;;11.79;100.00
65190;BME280;51777;53.570;9.984;2023-03-18T02:47:15;100515.84;;;11.81;100.00
65190;BME280;51777;53.570;9.984;2023-03-18T02:49:43;100512.59;;;11.79;100.00
65190;BME280;51777;53.570;9.984;2023-03-18T02:52:08;100517.47;;;11.82;100.00
65190;BME280;51777;53.570;9.984;2023-03-18T02:54:34;100516.31;;;11.85;100.00
65190;BME280;51777;53.570;9.984;2023-03-18T02:56:59;100518.59;;;11.88;100.00
65190;BME280;51777;53.570;9.984;2023-03-18T02:59:27;100517.13;;;11.85;100.00
65190;BME280;51777;53.570;9.984;2023-03-18T03:01:54;100514.22;;;11.88;100.00
65190;BME280;51777;53.570;9.984;2023-03-18T03:04:21;100512.16;;;11.92;100.00
65190;BME280;51777;53.570;9.984;2023-03-18T03:06:49;100517.47;;;11.90;100.00
65190;BME280;51777;53.570;9.984;2023-03-18T03:09:16;100514.72;;;11.92;100.00
65190;BME280;51777;53.570;9.984;2023-03-18T03:11:43;100521.38;;;11.94;100.00
65190;BME280;51777;53.570;9.984;2023-03-18T03:14:09;100520.56;;;11.94;100.00
65190;BME280;51777;53.570;9.984;2023-03-18T03:16:35;100513.13;;;11.91;100.00
65190;BME280;51777;53.570;9.984;2023-03-18T03:19:02;100518.28;;;11.91;100.00
65190;BME280;51777;53.570;9.984;2023-03-18T03:21:29;100516.31;;;11.85;100.00
65190;BME280;51777;53.570;9.984;2023-03-18T03:23:54;100513.50;;;11.78;100.00
65190;BME280;51777;53.570;9.984;2023-03-18T03:26:20;100511.75;;;11.79;100.00
65190;BME280;51777;53.570;9.984;2023-03-18T03:28:46;100510.13;;;11.77;100.00
65190;BME280;51777;53.570;9.984;2023-03-18T03:31:12;100515.28;;;11.77;100.00
65190;BME280;51777;53.570;9.984;2023-03-18T03:33:38;100519.03;;;11.75;100.00
65190;BME280;51777;53.570;9.984;2023-03-18T03:36:10;100515.13;;;11.71;100.00
65190;BME280;51777;53.570;9.984;2023-03-18T03:38:37;100518.84;;;11.68;100.00
65190;BME280;51777;53.570;9.984;2023-03-18T03:41:03;100514.81;;;11.66;100.00
65190;BME280;51777;53.570;9.984;2023-03-18T03:43:30;100506.38;;;11.56;100.00
65190;BME280;51777;53.570;9.984;2023-03-18T03:45:55;100500.38;;;11.55;100.00
65190;BME280;51777;53.570;9.984;2023-03-18T03:48:20;100496.28;;;11.53;100.00
65190;BME280;51777;53.570;9.984;2023-03-18T03:50:46;100487.06;;;11.50;100.00
65190;BME280;51777;53.570;9.984;2023-03-18T03:53:12;100494.19;;;11.48;100.00
65190;BME280;51777;53.570;9.984;2023-03-18T03:55:37;100495.00;;;11.48;100.00
65190;BME280;51777;53.570;9.984;2023-03-18T03:58:03;100491.75;;;11.46;100.00
65190;BME280;51777;53.570;9.984;2023-03-18T04:00:29;100501.16;;;11.47;100.00
65190;BME280;51777;53.570;9.984;2023-03-18T04:02:55;100490.16;;;11.45;100.00
65190;BME280;51777;53.570;9.984;2023-03-18T04:05:22;100504.53;;;11.48;100.00
65190;BME280;51777;53.570;9.984;2023-03-18T04:07:48;100506.81;;;11.51;100.00
65190;BME280;51777;53.570;9.984;2023-03-18T04:10:16;100508.59;;;11.51;100.00
65190;BME280;51777;53.570;9.984;2023-03-18T04:12:43;100517.50;;;11.48;100.00
65190;BME280;51777;53.570;9.984;2023-03-18T04:15:10;100510.53;;;11.48;100.00
65190;BME280;51777;53.570;9.984;2023-03-18T04:17:36;100514.91;;;11.48;100.00
65190;BME280;51777;53.570;9.984;2023-03-18T04:20:02;100516.34;;;11.51;100.00
65190;BME280;51777;53.570;9.984;2023-03-18T04:22:29;100515.56;;;11.50;100.00
65190;BME280;51777;53.570;9.984;2023-03-18T04:24:54;100509.88;;;11.46;100.00
65190;BME280;51777;53.570;9.984;2023-03-18T04:27:20;100514.41;;;11.44;100.00
65190;BME280;51777;53.570;9.984;2023-03-18T04:29:47;100526.88;;;11.49;100.00
65190;BME280;51777;53.570;9.984;2023-03-18T04:32:12;100528.50;;;11.50;100.00
65190;BME280;51777;53.570;9.984;2023-03-18T04:34:38;100518.47;;;11.47;100.00
65190;BME280;51777;53.570;9.984;2023-03-18T04:37:03;100515.22;;;11.45;100.00
65190;BME280;51777;53.570;9.984;2023-03-18T04:39:29;100516.84;;;11.46;100.00
65190;BME280;51777;53.570;9.984;2023-03-18T04:41:55;100516.19;;;11.44;100.00
65190;BME280;51777;53.570;9.984;2023-03-18T04:44:22;100521.38;;;11.44;100.00
65190;BME280;51777;53.570;9.984;2023-03-18T04:46:48;100514.25;;;11.46;100.00
65190;BME280;51777;53.570;9.984;2023-03-18T04:49:13;100514.91;;;11.48;100.00
65190;BME280;51777;53.570;9.984;2023-03-18T04:51:39;100518.47;;;11.47;100.00
65190;BME280;51777;53.570;9.984;2023-03-18T04:54:05;100519.75;;;11.51;100.00
65190;BME280;51777;53.570;9.984;2023-03-18T04:56:30;100523.16;;;11.52;100.00
65190;BME280;51777;53.570;9.984;2023-03-18T04:58:56;100527.53;;;11.51;100.00
65190;BME280;51777;53.570;9.984;2023-03-18T05:01:21;100531.91;;;11.51;100.00
65190;BME280;51777;53.570;9.984;2023-03-18T05:03:48;100528.50;;;11.50;100.00
65190;BME280;51777;53.570;9.984;2023-03-18T05:06:21;100526.72;;;11.51;100.00
65190;BME280;51777;53.570;9.984;2023-03-18T05:08:47;100535.00;;;11.54;100.00
65190;BME280;51777;53.570;9.984;2023-03-18T05:11:12;100555.72;;;11.54;100.00
65190;BME280;51777;53.570;9.984;2023-03-18T05:13:39;100546.28;;;11.53;100.00
65190;BME280;51777;53.570;9.984;2023-03-18T05:16:05;100538.53;;;11.53;100.00
65190;BME280;51777;53.570;9.984;2023-03-18T05:18:30;100533.69;;;11.50;100.00
65190;BME280;51777;53.570;9.984;2023-03-18T05:20:57;100534.47;;;11.51;100.00
65190;BME280;51777;53.570;9.984;2023-03-18T05:23:23;100530.94;;;11.52;100.00
65190;BME280;51777;53.570;9.984;2023-03-18T05:25:49;100539.81;;;11.49;100.00
65190;BME280;51777;53.570;9.984;2023-03-18T05:28:14;100530.44;;;11.48;100.00
65190;BME280;51777;53.570;9.984;2023-03-18T05:30:40;100530.75;;;11.45;100.00
65190;BME280;51777;53.570;9.984;2023-03-18T05:33:07;100543.22;;;11.50;100.00
65190;BME280;51777;53.570;9.984;2023-03-18T05:35:32;100543.53;;;11.46;100.00
65190;BME280;51777;53.570;9.984;2023-03-18T05:37:58;100544.81;;;11.42;100.00
65190;BME280;51777;53.570;9.984;2023-03-18T05:40:23;100535.78;;;11.46;100.00
65190;BME280;51777;53.570;9.984;2023-03-18T05:42:49;100546.47;;;11.52;100.00
65190;BME280;51777;53.570;9.984;2023-03-18T05:45:14;100546.28;;;11.53;100.00
65190;BME280;51777;53.570;9.984;2023-03-18T05:47:39;100546.78;;;11.48;100.00
65190;BME280;51777;53.570;9.984;2023-03-18T05:50:05;100549.03;;;11.43;100.00
65190;BME280;51777;53.570;9.984;2023-03-18T05:52:31;100554.22;;;11.43;100.00
65190;BME280;51777;53.570;9.984;2023-03-18T05:54:56;100556.97;;;11.42;100.00
65190;BME280;51777;53.570;9.984;2023-03-18T05:57:22;100557.63;;;11.44;100.00
65190;BME280;51777;53.570;9.984;2023-03-18T05:59:47;100563.25;;;11.39;100.00
65190;BME280;51777;53.570;9.984;2023-03-18T06:02:13;100564.03;;;11.40;100.00
65190;BME280;51777;53.570;9.984;2023-03-18T06:04:38;100576.19;;;11.39;100.00
65190;BME280;51777;53.570;9.984;2023-03-18T06:07:04;100571.16;;;11.38;100.00
65190;BME280;51777;53.570;9.984;2023-03-18T06:09:30;100583.13;;;11.39;100.00
65190;BME280;51777;53.570;9.984;2023-03-18T06:11:57;100582.81;;;11.34;100.00
65190;BME280;51777;53.570;9.984;2023-03-18T06:14:23;100584.56;;;11.33;100.00
65190;BME280;51777;53.570;9.984;2023-03-18T06:16:54;100584.41;;;11.35;100.00
65190;BME280;51777;53.570;9.984;2023-03-18T06:19:20;100581.03;;;11.34;100.00
65190;BME280;51777;53.570;9.984;2023-03-18T06:21:46;100577.78;;;11.32;100.00
65190;BME280;51777;53.570;9.984;2023-03-18T06:24:12;100573.59;;;11.39;100.00
65190;BME280;51777;53.570;9.984;2023-03-18T06:26:39;100578.44;;;11.34;100.00
65190;BME280;51777;53.570;9.984;2023-03-18T06:29:05;100576.88;;;11.41;100.00
65190;BME280;51777;53.570;9.984;2023-03-18T06:31:32;100576.88;;;11.41;100.00
65190;BME280;51777;53.570;9.984;2023-03-18T06:33:58;100583.34;;;11.45;100.00
65190;BME280;51777;53.570;9.984;2023-03-18T06:36:23;100589.50;;;11.44;100.00
65190;BME280;51777;53.570;9.984;2023-03-18T06:38:49;100588.03;;;11.42;100.00
65190;BME280;51777;53.570;9.984;2023-03-18T06:41:15;100595.31;;;11.46;100.00
65190;BME280;51777;53.570;9.984;2023-03-18T06:43:40;100591.16;;;11.54;100.00
65190;BME280;51777;53.570;9.984;2023-03-18T06:46:06;100590.03;;;11.56;100.00
65190;BME280;51777;53.570;9.984;2023-03-18T06:48:32;100590.19;;;11.63;100.00
65190;BME280;51777;53.570;9.984;2023-03-18T06:50:58;100593.97;;;11.68;100.00
65190;BME280;51777;53.570;9.984;2023-03-18T06:53:24;100593.16;;;11.76;100.00
65190;BME280;51777;53.570;9.984;2023-03-18T06:55:51;100603.91;;;11.81;100.00
65190;BME280;51777;53.570;9.984;2023-03-18T06:58:18;100607.66;;;11.87;100.00
65190;BME280;51777;53.570;9.984;2023-03-18T07:00:43;100613.19;;;11.92;100.00
65190;BME280;51777;53.570;9.984;2023-03-18T07:03:09;100620.97;;;11.92;100.00
65190;BME280;51777;53.570;9.984;2023-03-18T07:05:35;100630.00;;;11.88;100.00
65190;BME280;51777;53.570;9.984;2023-03-18T07:08:01;100637.47;;;11.99;100.00
65190;BME280;51777;53.570;9.984;2023-03-18T07:10:28;100632.78;;;12.02;100.00
65190;BME280;51777;53.570;9.984;2023-03-18T07:12:55;100635.41;;;12.11;100.00
65190;BME280;51777;53.570;9.984;2023-03-18T07:15:21;100632.53;;;12.22;100.00
65190;BME280;51777;53.570;9.984;2023-03-18T07:17:48;100639.19;;;12.16;100.00
65190;BME280;51777;53.570;9.984;2023-03-18T07:20:15;100643.38;;;12.25;100.00
65190;BME280;51777;53.570;9.984;2023-03-18T07:22:42;100646.69;;;12.44;100.00
65190;BME280;51777;53.570;9.984;2023-03-18T07:25:10;100648.63;;;12.50;100.00
65190;BME280;51777;53.570;9.984;2023-03-18T07:27:36;100653.16;;;12.64;100.00
65190;BME280;51777;53.570;9.984;2023-03-18T07:30:02;100658.03;;;12.59;100.00
65190;BME280;51777;53.570;9.984;2023-03-18T07:32:28;100651.91;;;12.68;100.00
65190;BME280;51777;53.570;9.984;2023-03-18T07:34:55;100663.22;;;12.59;100.00
65190;BME280;51777;53.570;9.984;2023-03-18T07:37:21;100666.97;;;12.56;100.00
65190;BME280;51777;53.570;9.984;2023-03-18T07:39:47;100673.41;;;12.52;100.00
65190;BME280;51777;53.570;9.984;2023-03-18T07:42:12;100674.09;;;12.54;100.00
65190;BME280;51777;53.570;9.984;2023-03-18T07:44:38;100678.75;;;12.51;100.00
65190;BME280;51777;53.570;9.984;2023-03-18T07:47:03;100670.00;;;12.35;100.00
65190;BME280;51777;53.570;9.984;2023-03-18T07:49:29;100673.72;;;12.33;100.00
65190;BME280;51777;53.570;9.984;2023-03-18T07:51:56;100671.59;;;12.28;100.00
65190;BME280;51777;53.570;9.984;2023-03-18T07:54:22;100673.38;;;12.28;100.00
65190;BME280;51777;53.570;9.984;2023-03-18T07:56:50;100673.88;;;12.31;100.00
65190;BME280;51777;53.570;9.984;2023-03-18T07:59:16;100681.16;;;12.36;100.00
65190;BME280;51777;53.570;9.984;2023-03-18T08:01:41;100679.88;;;12.32;100.00
65190;BME280;51777;53.570;9.984;2023-03-18T08:04:07;100686.97;;;12.22;100.00
65190;BME280;51777;53.570;9.984;2023-03-18T08:06:33;100685.66;;;12.18;100.00
65190;BME280;51777;53.570;9.984;2023-03-18T08:08:59;100679.84;;;12.16;100.00
65190;BME280;51777;53.570;9.984;2023-03-18T08:11:24;100686.16;;;12.21;100.00
65190;BME280;51777;53.570;9.984;2023-03-18T08:13:50;100686.16;;;12.21;100.00
65190;BME280;51777;53.570;9.984;2023-03-18T08:16:16;100693.25;;;12.11;100.00
65190;BME280;51777;53.570;9.984;2023-03-18T08:18:42;100702.00;;;12.10;100.00
65190;BME280;51777;53.570;9.984;2023-03-18T08:21:08;100695.34;;;12.08;100.00
65190;BME280;51777;53.570;9.984;2023-03-18T08:23:33;100707.50;;;12.07;100.00
65190;BME280;51777;53.570;9.984;2023-03-18T08:26:00;100704.03;;;11.98;100.00
65190;BME280;51777;53.570;9.984;2023-03-18T08:28:27;100709.13;;;12.08;100.00
65190;BME280;51777;53.570;9.984;2023-03-18T08:30:54;100709.97;;;12.17;100.00
65190;BME280;51777;53.570;9.984;2023-03-18T08:33:21;100712.19;;;12.12;100.00
65190;BME280;51777;53.570;9.984;2023-03-18T08:35:47;100712.34;;;12.10;100.00
65190;BME280;51777;53.570;9.984;2023-03-18T08:38:14;100714.09;;;12.01;100.00
65190;BME280;51777;53.570;9.984;2023-03-18T08:40:40;100722.97;;;11.91;100.00
65190;BME280;51777;53.570;9.984;2023-03-18T08:43:06;100726.25;;;12.01;100.00
65190;BME280;51777;53.570;9.984;2023-03-18T08:45:32;100727.56;;;12.05;100.00
65190;BME280;51777;53.570;9.984;2023-03-18T08:47:59;100736.91;;;11.98;100.00
65190;BME280;51777;53.570;9.984;2023-03-18T08:50:25;100746.53;;;12.05;100.00
65190;BME280;51777;53.570;9.984;2023-03-18T08:52:54;100754.47;;;12.04;100.00
65190;BME280;51777;53.570;9.984;2023-03-18T08:55:21;100747.66;;;12.03;100.00
65190;BME280;51777;53.570;9.984;2023-03-18T08:57:47;100753.78;;;12.02;100.00
65190;BME280;51777;53.570;9.984;2023-03-18T09:00:12;100752.31;;;11.99;100.00
65190;BME280;51777;53.570;9.984;2023-03-18T09:02:39;100768.47;;;12.19;100.00
65190;BME280;51777;53.570;9.984;2023-03-18T09:05:06;100761.81;;;12.17;100.00
65190;BME280;51777;53.570;9.984;2023-03-18T09:07:31;100759.59;;;12.30;100.00
65190;BME280;51777;53.570;9.984;2023-03-18T09:09:57;100761.59;;;12.44;100.00
65190;BME280;51777;53.570;9.984;2023-03-18T09:12:22;100762.72;;;12.50;100.00
65190;BME280;51777;53.570;9.984;2023-03-18T09:14:48;100768.78;;;12.24;100.00
65190;BME280;51777;53.570;9.984;2023-03-18T09:17:14;100758.75;;;12.21;100.00
65190;BME280;51777;53.570;9.984;2023-03-18T09:19:40;100772.03;;;12.26;100.00
65190;BME280;51777;53.570;9.984;2023-03-18T09:22:05;100771.38;;;12.16;100.00
65190;BME280;51777;53.570;9.984;2023-03-18T09:24:31;100770.81;;;12.04;100.00
65190;BME280;51777;53.570;9.984;2023-03-18T09:26:57;100771.63;;;12.05;100.00
65190;BME280;51777;53.570;9.984;2023-03-18T09:29:24;100779.03;;;12.00;100.00
65190;BME280;51777;53.570;9.984;2023-03-18T09:31:51;100780.06;;;12.07;100.00
65190;BME280;51777;53.570;9.984;2023-03-18T09:34:16;100783.50;;;12.16;100.00
65190;BME280;51777;53.570;9.984;2023-03-18T09:36:42;100786.44;;;12.21;100.00
65190;BME280;51777;53.570;9.984;2023-03-18T09:39:15;100788.56;;;12.25;100.00
65190;BME280;51777;53.570;9.984;2023-03-18T09:42:08;100790.44;;;12.07;100.00
65190;BME280;51777;53.570;9.984;2023-03-18T09:44:37;100784.97;;;12.18;100.00
65190;BME280;51777;53.570;9.984;2023-03-18T09:49:54;100791.13;;;12.17;100.00
65190;BME280;51777;53.570;9.984;2023-03-18T09:54:56;100792.13;;;12.24;100.00
65190;BME280;51777;53.570;9.984;2023-03-18T09:57:34;100788.06;;;12.22;100.00
65190;BME280;51777;53.570;9.984;2023-03-18T10:00:14;100793.78;;;12.33;100.00
65190;BME280;51777;53.570;9.984;2023-03-18T10:03:02;100797.91;;;12.44;100.00
65190;BME280;51777;53.570;9.984;2023-03-18T10:05:33;100800.31;;;12.46;100.00
65190;BME280;51777;53.570;9.984;2023-03-18T10:08:12;100796.97;;;12.61;100.00
65190;BME280;51777;53.570;9.984;2023-03-18T10:10:42;100806.91;;;13.41;100.00
65190;BME280;51777;53.570;9.984;2023-03-18T10:16:19;100810.94;;;13.43;100.00
65190;BME280;51777;53.570;9.984;2023-03-18T10:18:46;100811.91;;;13.50;100.00
65190;BME280;51777;53.570;9.984;2023-03-18T10:21:49;100812.22;;;13.80;100.00
65190;BME280;51777;53.570;9.984;2023-03-18T10:30:13;100811.41;;;13.63;100.00
65190;BME280;51777;53.570;9.984;2023-03-18T10:32:58;100809.47;;;13.81;100.00
65190;BME280;51777;53.570;9.984;2023-03-18T10:35:44;100822.75;;;14.03;100.00
65190;BME280;51777;53.570;9.984;2023-03-18T10:40:42;100816.53;;;14.12;100.00
65190;BME280;51777;53.570;9.984;2023-03-18T10:43:20;100818.28;;;14.44;100.00
65190;BME280;51777;53.570;9.984;2023-03-18T10:45:48;100815.94;;;14.57;100.00
65190;BME280;51777;53.570;9.984;2023-03-18T10:48:20;100824.75;;;14.48;100.00
65190;BME280;51777;53.570;9.984;2023-03-18T10:53:43;100833.25;;;16.25;100.00
65190;BME280;51777;53.570;9.984;2023-03-18T10:56:12;100831.88;;;15.62;100.00
65190;BME280;51777;53.570;9.984;2023-03-18T10:58:40;100832.03;;;15.38;100.00
65190;BME280;51777;53.570;9.984;2023-03-18T11:01:06;100831.63;;;15.49;100.00
65190;BME280;51777;53.570;9.984;2023-03-18T11:03:48;100847.75;;;15.52;100.00
65190;BME280;51777;53.570;9.984;2023-03-18T11:06:22;100850.72;;;15.87;100.00
65190;BME280;51777;53.570;9.984;2023-03-18T11:08:59;100853.63;;;16.66;100.00
65190;BME280;51777;53.570;9.984;2023-03-18T11:11:28;100853.88;;;17.86;100.00
65190;BME280;51777;53.570;9.984;2023-03-18T11:13:57;100871.72;;;18.73;100.00
65190;BME280;51777;53.570;9.984;2023-03-18T11:16:39;100870.72;;;19.68;100.00
65190;BME280;51777;53.570;9.984;2023-03-18T11:22:26;100880.13;;;23.28;100.00
65190;BME280;51777;53.570;9.984;2023-03-18T11:27:48;100886.28;;;22.00;100.00
65190;BME280;51777;53.570;9.984;2023-03-18T11:30:22;100889.63;;;22.50;100.00
65190;BME280;51777;53.570;9.984;2023-03-18T11:35:24;100885.53;;;22.36;100.00
65190;BME280;51777;53.570;9.984;2023-03-18T11:37:55;100887.44;;;22.47;100.00
65190;BME280;51777;53.570;9.984;2023-03-18T11:40:24;100891.84;;;23.43;100.00
65190;BME280;51777;53.570;9.984;2023-03-18T11:43:01;100882.66;;;22.19;100.00
65190;BME280;51777;53.570;9.984;2023-03-18T11:45:42;100884.59;;;22.49;100.00
65190;BME280;51777;53.570;9.984;2023-03-18T11:48:16;100880.34;;;22.48;100.00
65190;BME280;51777;53.570;9.984;2023-03-18T11:51:19;100875.53;;;21.27;100.00
65190;BME280;51777;53.570;9.984;2023-03-18T11:59:45;100879.28;;;20.55;100.00
65190;BME280;51777;53.570;9.984;2023-03-18T12:02:29;100881.69;;;20.63;100.00
65190;BME280;51777;53.570;9.984;2023-03-18T12:05:12;100885.66;;;21.17;100.00
65190;BME280;51777;53.570;9.984;2023-03-18T12:10:40;100890.88;;;22.30;100.00
65190;BME280;51777;53.570;9.984;2023-03-18T12:13:29;100889.56;;;22.20;100.00
65190;BME280;51777;53.570;9.984;2023-03-18T12:16:12;100891.09;;;22.65;100.00
65190;BME280;51777;53.570;9.984;2023-03-18T12:22:01;100897.88;;;21.67;100.00
65190;BME280;51777;53.570;9.984;2023-03-18T12:24:49;100909.69;;;23.18;100.00
65190;BME280;51777;53.570;9.984;2023-03-18T12:35:26;100914.38;;;24.75;100.00
65190;BME280;51777;53.570;9.984;2023-03-18T12:49:00;100898.31;;;22.14;100.00
65190;BME280;51777;53.570;9.984;2023-03-18T12:52:18;100900.84;;;22.03;100.00
65190;BME280;51777;53.570;9.984;2023-03-18T12:54:25;100904.06;;;22.84;100.00
65190;BME280;51777;53.570;9.984;2023-03-18T12:56:58;100912.28;;;23.36;100.00
65190;BME280;51777;53.570;9.984;2023-03-18T12:59:40;100911.72;;;23.99;100.00
65190;BME280;51777;53.570;9.984;2023-03-18T13:05:00;100911.44;;;23.66;100.00
65190;BME280;51777;53.570;9.984;2023-03-18T13:07:38;100898.25;;;22.94;100.00
65190;BME280;51777;53.570;9.984;2023-03-18T13:10:23;100903.31;;;22.96;100.00
65190;BME280;51777;53.570;9.984;2023-03-18T13:12:53;100895.56;;;23.12;100.00
65190;BME280;51777;53.570;9.984;2023-03-18T13:15:27;100904.94;;;23.38;100.00
65190;BME280;51777;53.570;9.984;2023-03-18T13:17:58;100900.66;;;22.77;100.00
65190;BME280;51777;53.570;9.984;2023-03-18T13:20:33;100898.34;;;22.51;100.00
65190;BME280;51777;53.570;9.984;2023-03-18T13:26:19;100904.84;;;22.30;100.00
65190;BME280;51777;53.570;9.984;2023-03-18T13:34:48;100895.25;;;20.53;100.00
65190;BME280;51777;53.570;9.984;2023-03-18T13:42:30;100896.94;;;19.94;100.00
65190;BME280;51777;53.570;9.984;2023-03-18T13:47:40;100893.31;;;19.82;100.00
65190;BME280;51777;53.570;9.984;2023-03-18T13:52:43;100883.34;;;18.64;100.00
65190;BME280;51777;53.570;9.984;2023-03-18T13:55:30;100884.41;;;18.41;100.00
65190;BME280;51777;53.570;9.984;2023-03-18T13:58:23;100878.16;;;18.08;100.00
65190;BME280;51777;53.570;9.984;2023-03-18T14:03:26;100879.69;;;17.96;100.00
65190;BME280;51777;53.570;9.984;2023-03-18T14:14:03;100887.31;;;19.01;100.00
65190;BME280;51777;53.570;9.984;2023-03-18T14:19:15;100881.13;;;19.15;100.00
65190;BME280;51777;53.570;9.984;2023-03-18T14:21:45;100872.13;;;18.76;100.00
65190;BME280;51777;53.570;9.984;2023-03-18T14:29:35;100883.81;;;18.39;100.00
65190;BME280;51777;53.570;9.984;2023-03-18T14:32:28;100886.75;;;18.30;100.00
65190;BME280;51777;53.570;9.984;2023-03-18T14:34:53;100893.47;;;18.39;100.00